createdAt,value
2017-09-17T00:00:27.019Z,82.50
2017-09-17T00:02:56.034Z,80.00
2017-09-17T00:05:24.330Z,80.00
2017-09-17T00:07:52.574Z,79.00
2017-09-17T00:10:20.810Z,80.20
2017-09-17T00:12:49.410Z,77.80
2017-09-17T00:15:17.661Z,79.70
2017-09-17T00:17:46.166Z,79.30
2017-09-17T00:20:14.447Z,79.00
2017-09-17T00:22:42.685Z,79.60
2017-09-17T00:25:10.946Z,77.80
2017-09-17T00:27:39.222Z,77.80
2017-09-17T00:30:07.463Z,77.40
2017-09-17T00:32:35.714Z,79.80
2017-09-17T00:35:04.365Z,80.70
2017-09-17T00:37:32.646Z,81.30
2017-09-17T00:40:00.886Z,79.90
2017-09-17T00:42:29.154Z,79.00
2017-09-17T00:44:58.167Z,80.50
2017-09-17T00:47:26.405Z,80.50
2017-09-17T00:49:54.906Z,79.10
2017-09-17T00:52:23.909Z,79.30
2017-09-17T00:54:52.922Z,81.90
2017-09-17T00:57:21.630Z,81.80
2017-09-17T00:59:49.874Z,82.50
2017-09-17T01:02:18.334Z,81.10
2017-09-17T01:04:47.379Z,82.90
2017-09-17T01:07:15.621Z,82.90
2017-09-17T01:09:44.633Z,82.50
2017-09-17T01:12:12.896Z,82.50
2017-09-17T01:14:41.134Z,82.20
2017-09-17T01:17:09.395Z,87.00
2017-09-17T01:19:38.058Z,84.70
2017-09-17T01:22:06.314Z,81.80
2017-09-17T01:24:35.311Z,82.30
2017-09-17T01:27:03.586Z,82.10
2017-09-17T01:29:32.599Z,81.60
2017-09-17T01:32:00.838Z,81.60
2017-09-17T01:34:29.102Z,82.20
2017-09-17T01:36:57.354Z,82.00
2017-09-17T01:39:25.594Z,81.40
2017-09-17T01:41:54.602Z,81.20
2017-09-17T01:44:22.854Z,82.40
2017-09-17T01:46:51.111Z,83.10
2017-09-17T01:49:20.146Z,82.50
2017-09-17T01:51:48.390Z,82.50
2017-09-17T01:54:17.405Z,85.10
2017-09-17T01:56:45.674Z,85.20
2017-09-17T01:59:13.923Z,85.20
2017-09-17T02:01:42.161Z,83.30
2017-09-17T02:04:10.726Z,83.70
2017-09-17T02:06:38.970Z,83.10
2017-09-17T02:09:07.990Z,84.30
2017-09-17T02:11:36.267Z,84.20
2017-09-17T02:14:04.506Z,82.90
2017-09-17T02:16:32.746Z,82.80
2017-09-17T02:19:01.070Z,82.20
2017-09-17T02:21:29.426Z,82.10
2017-09-17T02:23:57.666Z,82.00
2017-09-17T02:26:26.331Z,84.80
2017-09-17T02:28:54.574Z,83.50
2017-09-17T02:31:22.818Z,85.10
2017-09-17T02:33:51.082Z,87.10
2017-09-17T02:36:19.336Z,88.60
2017-09-17T02:38:47.578Z,87.00
2017-09-17T02:41:16.617Z,84.40
2017-09-17T02:43:44.870Z,84.30
2017-09-17T02:46:13.877Z,86.00
2017-09-17T02:48:42.678Z,86.00
2017-09-17T02:51:10.979Z,85.30
2017-09-17T02:53:39.950Z,89.30
2017-09-17T02:56:08.223Z,86.40
2017-09-17T02:58:36.458Z,87.90
2017-09-17T03:01:05.466Z,85.70
2017-09-17T03:03:34.499Z,84.80
2017-09-17T03:06:02.822Z,84.80
2017-09-17T03:08:31.826Z,85.20
2017-09-17T03:11:01.169Z,84.20
2017-09-17T03:13:29.403Z,84.20
2017-09-17T03:15:58.245Z,85.70
2017-09-17T03:18:26.932Z,85.10
2017-09-17T03:20:55.174Z,85.10
2017-09-17T03:23:23.630Z,84.20
2017-09-17T03:25:52.657Z,83.80
2017-09-17T03:28:20.898Z,83.80
2017-09-17T03:30:49.146Z,83.40
2017-09-17T03:33:17.467Z,84.90
2017-09-17T03:35:45.713Z,84.80
2017-09-17T03:38:13.949Z,85.30
2017-09-17T03:40:42.242Z,84.30
2017-09-17T03:43:10.486Z,85.20
2017-09-17T03:45:38.722Z,85.00
2017-09-17T03:48:06.989Z,86.50
2017-09-17T03:50:35.355Z,85.50
2017-09-17T03:53:03.581Z,86.50
2017-09-17T03:55:32.964Z,87.40
2017-09-17T03:58:01.208Z,87.30
2017-09-17T04:00:29.454Z,86.30
2017-09-17T04:02:57.761Z,86.40
2017-09-17T04:05:26.038Z,85.60
2017-09-17T04:07:54.261Z,86.50
2017-09-17T04:10:22.525Z,87.70
2017-09-17T04:12:51.535Z,87.30
2017-09-17T04:15:20.538Z,86.10
2017-09-17T04:17:49.246Z,86.10
2017-09-17T04:20:17.494Z,87.00
2017-09-17T04:22:46.493Z,87.60
2017-09-17T04:25:15.297Z,87.60
2017-09-17T04:27:43.530Z,86.10
2017-09-17T04:30:11.994Z,86.00
2017-09-17T04:32:40.242Z,86.10
2017-09-17T04:35:08.637Z,85.60
2017-09-17T04:37:36.863Z,85.70
2017-09-17T04:40:06.510Z,86.20
2017-09-17T04:42:34.759Z,86.20
2017-09-17T04:45:02.997Z,85.50
2017-09-17T04:47:31.271Z,86.40
2017-09-17T04:49:59.506Z,88.40
2017-09-17T04:52:27.741Z,86.10
2017-09-17T04:54:56.777Z,88.80
2017-09-17T04:57:25.026Z,88.00
2017-09-17T04:59:53.267Z,86.60
2017-09-17T05:02:21.674Z,87.10
2017-09-17T05:04:49.954Z,87.60
2017-09-17T05:07:18.966Z,86.60
2017-09-17T05:09:47.253Z,86.50
2017-09-17T05:12:15.501Z,85.40
2017-09-17T05:14:43.737Z,85.40
2017-09-17T05:17:12.011Z,88.40
2017-09-17T05:19:40.251Z,87.00
2017-09-17T05:22:08.515Z,88.20
2017-09-17T05:24:37.329Z,90.00
2017-09-17T05:27:05.965Z,89.10
2017-09-17T05:29:34.974Z,88.40
2017-09-17T05:32:04.006Z,89.30
2017-09-17T05:34:32.246Z,89.20
2017-09-17T05:37:01.254Z,88.50
2017-09-17T05:39:29.517Z,88.50
2017-09-17T05:41:57.758Z,87.10
2017-09-17T05:44:26.000Z,86.70
2017-09-17T05:46:54.397Z,86.20
2017-09-17T05:49:22.638Z,86.80
2017-09-17T05:51:50.922Z,87.50
2017-09-17T05:54:19.194Z,90.00
2017-09-17T05:56:47.442Z,89.00
2017-09-17T05:59:16.446Z,90.30
2017-09-17T06:01:45.478Z,90.20
2017-09-17T06:04:13.738Z,90.10
2017-09-17T06:06:41.990Z,87.30
2017-09-17T06:09:10.619Z,86.40
2017-09-17T06:11:38.867Z,86.20
2017-09-17T06:14:07.101Z,87.20
2017-09-17T06:16:35.366Z,87.70
2017-09-17T06:19:03.611Z,87.60
2017-09-17T06:21:31.862Z,87.10
2017-09-17T06:24:00.901Z,88.30
2017-09-17T06:26:29.154Z,88.20
2017-09-17T06:28:57.606Z,87.20
2017-09-17T06:31:27.064Z,83.80
2017-09-17T06:33:55.304Z,83.70
2017-09-17T06:36:23.549Z,85.00
2017-09-17T06:38:51.815Z,86.10
2017-09-17T06:41:20.061Z,86.60
2017-09-17T06:43:48.310Z,86.90
2017-09-17T06:46:16.577Z,86.60
2017-09-17T06:48:44.823Z,86.90
2017-09-17T06:51:13.111Z,84.90
2017-09-17T06:53:41.750Z,85.20
2017-09-17T06:56:09.994Z,83.80
2017-09-17T06:58:38.238Z,84.50
2017-09-17T07:01:06.567Z,83.10
2017-09-17T07:03:34.812Z,83.30
2017-09-17T07:06:03.054Z,83.90
2017-09-17T07:08:31.325Z,84.70
2017-09-17T07:10:59.574Z,84.80
2017-09-17T07:13:27.814Z,85.80
2017-09-17T07:15:57.186Z,87.40
2017-09-17T07:18:25.427Z,87.30
2017-09-17T07:20:53.671Z,86.30
2017-09-17T07:23:21.938Z,84.90
2017-09-17T07:25:51.102Z,83.50
2017-09-17T07:28:19.335Z,83.40
2017-09-17T07:30:47.874Z,80.90
2017-09-17T07:33:16.101Z,80.10
2017-09-17T07:35:44.358Z,81.70
2017-09-17T07:38:12.930Z,82.00
2017-09-17T07:40:41.173Z,81.90
2017-09-17T07:43:09.419Z,81.10
2017-09-17T07:45:37.693Z,81.50
2017-09-17T07:48:05.933Z,81.50
2017-09-17T07:50:34.183Z,81.00
2017-09-17T07:53:02.453Z,81.20
2017-09-17T07:55:30.703Z,81.20
2017-09-17T07:57:58.985Z,80.90
2017-09-17T08:00:27.832Z,80.70
2017-09-17T08:02:56.117Z,80.20
2017-09-17T08:05:24.337Z,80.20
2017-09-17T08:07:52.598Z,77.80
2017-09-17T08:10:20.847Z,76.20
2017-09-17T08:12:49.904Z,77.40
2017-09-17T08:15:18.218Z,77.30
2017-09-17T08:17:47.231Z,76.90
2017-09-17T08:20:15.482Z,76.80
2017-09-17T08:22:44.010Z,76.60
2017-09-17T08:25:12.251Z,76.40
2017-09-17T08:27:41.262Z,72.20
2017-09-17T08:30:09.714Z,72.20
2017-09-17T08:32:39.027Z,73.80
2017-09-17T08:35:07.287Z,73.70
2017-09-17T08:37:35.552Z,74.30
2017-09-17T08:40:03.790Z,73.80
2017-09-17T08:42:32.030Z,71.40
2017-09-17T08:45:00.963Z,69.90
2017-09-17T08:47:29.210Z,69.70
2017-09-17T08:49:57.462Z,71.60
2017-09-17T08:52:25.732Z,72.80
2017-09-17T08:54:53.995Z,73.50
2017-09-17T08:57:22.243Z,73.20
2017-09-17T08:59:50.508Z,72.30
2017-09-17T09:02:18.793Z,73.30
2017-09-17T09:04:47.034Z,73.80
2017-09-17T09:07:16.198Z,75.10
2017-09-17T09:09:44.446Z,75.00
2017-09-17T09:12:12.678Z,74.80
2017-09-17T09:14:41.710Z,74.90
2017-09-17T09:17:09.950Z,74.80
2017-09-17T09:19:38.200Z,75.70
2017-09-17T09:22:06.473Z,75.10
2017-09-17T09:24:34.722Z,74.90
2017-09-17T09:27:02.962Z,73.40
2017-09-17T09:29:32.399Z,71.30
2017-09-17T09:32:00.642Z,71.20
2017-09-17T09:34:30.038Z,71.10
2017-09-17T09:36:59.069Z,70.40
2017-09-17T09:39:27.311Z,70.30
2017-09-17T09:41:56.322Z,65.90
2017-09-17T09:44:24.586Z,65.90
2017-09-17T09:46:52.839Z,68.00
2017-09-17T09:49:21.070Z,64.50
2017-09-17T09:51:49.798Z,65.40
2017-09-17T09:54:18.034Z,64.10
2017-09-17T09:56:46.283Z,64.20
2017-09-17T09:59:14.543Z,61.50
2017-09-17T10:01:42.790Z,61.20
2017-09-17T10:04:11.038Z,61.50
2017-09-17T10:06:39.302Z,60.10
2017-09-17T10:09:07.546Z,60.70
2017-09-17T10:11:35.802Z,60.80
2017-09-17T10:14:04.449Z,60.80
2017-09-17T10:16:32.698Z,59.10
2017-09-17T10:19:00.933Z,56.30
2017-09-17T10:21:29.199Z,57.30
2017-09-17T10:23:57.434Z,52.70
2017-09-17T10:26:25.686Z,54.10
2017-09-17T10:28:53.954Z,52.90
2017-09-17T10:31:22.210Z,52.60
2017-09-17T10:33:50.445Z,51.90
2017-09-17T10:36:19.558Z,52.80
2017-09-17T10:38:47.808Z,53.80
2017-09-17T10:41:16.051Z,54.60
2017-09-17T10:43:44.322Z,55.00
2017-09-17T10:46:12.566Z,56.90
2017-09-17T10:48:40.808Z,56.20
2017-09-17T10:51:09.834Z,55.70
2017-09-17T10:53:38.074Z,55.70
2017-09-17T10:56:06.319Z,54.60
2017-09-17T10:58:35.170Z,54.20
2017-09-17T11:01:03.411Z,53.90
2017-09-17T11:03:31.655Z,53.50
2017-09-17T11:05:59.921Z,54.30
2017-09-17T11:08:28.173Z,55.40
2017-09-17T11:10:56.410Z,55.30
2017-09-17T11:13:25.446Z,55.50
2017-09-17T11:15:53.692Z,55.50
2017-09-17T11:18:22.695Z,54.80
2017-09-17T11:20:51.052Z,54.70
2017-09-17T11:23:19.317Z,54.90
2017-09-17T11:25:47.554Z,54.10
2017-09-17T11:28:15.822Z,51.60
2017-09-17T11:30:44.061Z,53.90
2017-09-17T11:33:12.302Z,52.80
2017-09-17T11:35:40.573Z,53.70
2017-09-17T11:38:09.294Z,46.30
2017-09-17T11:40:38.294Z,47.40
2017-09-17T11:43:07.947Z,40.90
2017-09-17T11:45:36.182Z,40.90
2017-09-17T11:48:04.519Z,39.00
2017-09-17T11:50:32.762Z,40.40
2017-09-17T11:53:01.014Z,42.10
2017-09-17T11:55:29.251Z,44.60
2017-09-17T11:57:57.516Z,46.50
2017-09-17T12:00:25.761Z,48.00
2017-09-17T12:02:54.129Z,47.70
2017-09-17T12:05:23.680Z,47.90
2017-09-17T12:07:51.918Z,47.80
2017-09-17T12:10:20.150Z,46.30
2017-09-17T12:12:48.434Z,44.00
2017-09-17T12:15:16.679Z,43.00
2017-09-17T12:17:44.925Z,42.80
2017-09-17T12:20:13.195Z,44.60
2017-09-17T12:22:41.470Z,40.90
2017-09-17T12:25:10.407Z,39.70
2017-09-17T12:27:39.078Z,37.20
2017-09-17T12:30:07.324Z,34.20
2017-09-17T12:32:35.566Z,36.60
2017-09-17T12:35:03.843Z,35.20
2017-09-17T12:37:32.087Z,37.90
2017-09-17T12:40:00.658Z,37.00
2017-09-17T12:42:28.926Z,37.50
2017-09-17T12:44:57.318Z,38.60
2017-09-17T12:47:25.548Z,37.80
2017-09-17T12:49:54.167Z,38.70
2017-09-17T12:52:22.412Z,39.30
2017-09-17T12:54:50.670Z,39.70
2017-09-17T12:57:18.930Z,40.20
2017-09-17T12:59:47.178Z,41.70
2017-09-17T13:02:15.454Z,39.80
2017-09-17T13:04:43.731Z,41.10
2017-09-17T13:07:12.163Z,39.80
2017-09-17T13:09:42.650Z,38.90
2017-09-17T13:12:14.530Z,37.50
2017-09-17T13:14:42.753Z,37.70
2017-09-17T13:17:11.019Z,39.50
2017-09-17T13:19:39.287Z,41.40
2017-09-17T13:22:07.538Z,41.50
2017-09-17T13:24:35.774Z,41.30
2017-09-17T13:27:04.158Z,40.30
2017-09-17T13:29:32.427Z,40.30
2017-09-17T13:32:00.656Z,40.80
2017-09-17T13:34:29.137Z,41.50
2017-09-17T13:36:57.375Z,42.00
2017-09-17T13:39:27.838Z,42.70
2017-09-17T13:42:04.500Z,43.70
2017-09-17T13:44:32.755Z,44.10
2017-09-17T13:47:00.998Z,44.60
2017-09-17T13:49:30.119Z,44.90
2017-09-17T13:51:58.370Z,44.80
2017-09-17T13:54:26.653Z,45.20
2017-09-17T13:56:55.120Z,44.60
2017-09-17T13:59:24.262Z,42.70
2017-09-17T14:02:01.134Z,40.50
2017-09-17T14:04:40.204Z,41.90
2017-09-17T14:07:14.514Z,40.90
2017-09-17T14:09:42.838Z,42.00
2017-09-17T14:12:11.846Z,38.60
2017-09-17T14:14:40.123Z,38.40
2017-09-17T14:17:08.374Z,36.20
2017-09-17T14:19:37.861Z,33.40
2017-09-17T14:22:06.662Z,30.30
2017-09-17T14:24:34.907Z,32.90
2017-09-17T14:27:03.226Z,31.90
2017-09-17T14:29:31.767Z,31.60
2017-09-17T14:32:02.200Z,31.80
2017-09-17T14:34:30.447Z,25.20
2017-09-17T14:36:59.355Z,27.10
2017-09-17T14:39:27.646Z,27.70
2017-09-17T14:41:55.895Z,26.70
2017-09-17T14:44:24.807Z,27.10
2017-09-17T14:46:53.053Z,27.00
2017-09-17T14:49:21.297Z,28.90
2017-09-17T14:51:49.658Z,28.30
2017-09-17T14:54:17.971Z,26.60
2017-09-17T14:56:46.964Z,30.20
2017-09-17T14:59:15.226Z,30.10
2017-09-17T15:01:43.724Z,31.10
2017-09-17T15:04:11.974Z,32.50
2017-09-17T15:06:40.509Z,33.80
2017-09-17T15:09:08.751Z,34.70
2017-09-17T15:11:37.100Z,35.60
2017-09-17T15:14:05.425Z,37.40
2017-09-17T15:16:33.683Z,35.30
2017-09-17T15:19:01.938Z,34.30
2017-09-17T15:21:30.432Z,34.10
2017-09-17T15:23:59.450Z,31.60
2017-09-17T15:26:27.707Z,31.50
2017-09-17T15:28:56.056Z,31.90
2017-09-17T15:31:24.316Z,30.90
2017-09-17T15:33:52.565Z,29.80
2017-09-17T15:36:22.902Z,29.80
2017-09-17T15:38:53.394Z,30.60
2017-09-17T15:41:22.395Z,33.80
2017-09-17T15:43:50.746Z,33.70
2017-09-17T15:46:19.102Z,34.60
2017-09-17T15:48:47.511Z,32.20
2017-09-17T15:51:15.763Z,30.10
2017-09-17T15:53:44.008Z,30.70
2017-09-17T15:56:12.330Z,29.80
2017-09-17T15:58:40.891Z,30.50
2017-09-17T16:01:09.146Z,29.60
2017-09-17T16:03:37.397Z,28.80
2017-09-17T16:06:05.884Z,28.90
2017-09-17T16:08:35.134Z,31.90
2017-09-17T16:11:03.514Z,32.60
2017-09-17T16:13:31.954Z,34.30
2017-09-17T16:16:00.275Z,34.60
2017-09-17T16:18:28.650Z,35.80
2017-09-17T16:20:57.286Z,37.30
2017-09-17T16:23:25.533Z,37.30
2017-09-17T16:25:53.781Z,37.90
2017-09-17T16:28:22.191Z,38.30
2017-09-17T16:30:51.206Z,39.80
2017-09-17T16:33:19.580Z,39.10
2017-09-17T16:35:47.938Z,39.70
2017-09-17T16:38:16.297Z,40.40
2017-09-17T16:40:44.680Z,39.40
2017-09-17T16:43:13.140Z,38.90
2017-09-17T16:45:42.342Z,39.30
2017-09-17T16:48:11.042Z,40.30
2017-09-17T16:50:39.330Z,40.00
2017-09-17T16:53:07.571Z,40.40
2017-09-17T16:55:35.878Z,40.80
2017-09-17T16:58:04.643Z,41.10
2017-09-17T17:00:32.898Z,42.10
2017-09-17T17:03:01.147Z,42.00
2017-09-17T17:05:29.528Z,43.30
2017-09-17T17:07:58.999Z,43.50
2017-09-17T17:10:27.366Z,43.10
2017-09-17T17:12:56.702Z,43.50
2017-09-17T17:15:25.059Z,43.60
2017-09-17T17:17:53.466Z,44.30
2017-09-17T17:20:21.718Z,44.60
2017-09-17T17:22:49.959Z,45.10
2017-09-17T17:25:18.229Z,44.90
2017-09-17T17:27:46.723Z,44.60
2017-09-17T17:30:14.971Z,45.20
2017-09-17T17:32:43.398Z,45.50
2017-09-17T17:35:11.662Z,46.50
2017-09-17T17:37:40.047Z,47.00
2017-09-17T17:40:08.275Z,49.40
2017-09-17T17:42:36.646Z,50.00
2017-09-17T17:45:05.656Z,49.10
2017-09-17T17:47:34.899Z,49.10
2017-09-17T17:50:03.727Z,48.90
2017-09-17T17:52:31.974Z,48.30
2017-09-17T17:55:00.238Z,48.30
2017-09-17T17:57:28.508Z,48.10
2017-09-17T17:59:56.758Z,48.90
2017-09-17T18:02:25.932Z,48.70
2017-09-17T18:04:54.966Z,49.60
2017-09-17T18:07:23.361Z,49.50
2017-09-17T18:09:51.601Z,50.00
2017-09-17T18:12:20.306Z,50.30
2017-09-17T18:14:48.547Z,50.50
2017-09-17T18:17:16.782Z,51.30
2017-09-17T18:19:45.060Z,50.30
2017-09-17T18:22:13.310Z,51.50
2017-09-17T18:24:41.553Z,51.70
2017-09-17T18:27:10.578Z,51.90
2017-09-17T18:29:38.822Z,51.80
2017-09-17T18:32:07.059Z,52.20
2017-09-17T18:34:35.722Z,52.00
2017-09-17T18:37:03.962Z,52.20
2017-09-17T18:39:32.215Z,52.40
2017-09-17T18:42:00.487Z,51.90
2017-09-17T18:44:28.750Z,54.00
2017-09-17T18:46:56.986Z,53.60
2017-09-17T18:49:25.259Z,53.20
2017-09-17T18:51:54.022Z,53.10
2017-09-17T18:54:23.038Z,53.90
2017-09-17T18:56:51.627Z,53.90
2017-09-17T18:59:19.880Z,53.90
2017-09-17T19:01:48.890Z,54.50
2017-09-17T19:04:17.166Z,54.50
2017-09-17T19:06:45.413Z,55.50
2017-09-17T19:09:14.420Z,56.20
2017-09-17T19:11:43.449Z,55.10
2017-09-17T19:14:11.698Z,55.10
2017-09-17T19:16:39.954Z,55.00
2017-09-17T19:19:10.226Z,56.60
2017-09-17T19:21:38.467Z,56.00
2017-09-17T19:24:07.475Z,55.60
2017-09-17T19:26:35.748Z,55.60
2017-09-17T19:29:04.019Z,56.40
2017-09-17T19:31:33.011Z,56.50
2017-09-17T19:34:02.047Z,56.90
2017-09-17T19:36:30.302Z,56.80
2017-09-17T19:38:58.726Z,57.50
2017-09-17T19:41:27.181Z,57.40
2017-09-17T19:43:55.423Z,57.40
2017-09-17T19:46:23.658Z,59.60
2017-09-17T19:48:51.934Z,59.00
2017-09-17T19:51:20.192Z,59.30
2017-09-17T19:53:48.855Z,59.40
2017-09-17T19:56:17.127Z,59.30
2017-09-17T19:58:45.373Z,59.60
2017-09-17T20:01:14.381Z,58.70
2017-09-17T20:03:43.336Z,58.60
2017-09-17T20:06:11.570Z,59.30
2017-09-17T20:08:39.815Z,58.40
2017-09-17T20:11:08.847Z,58.50
2017-09-17T20:13:37.085Z,58.40
2017-09-17T20:16:05.332Z,59.90
2017-09-17T20:18:33.598Z,59.30
2017-09-17T20:21:01.877Z,61.80
2017-09-17T20:23:30.122Z,60.70
2017-09-17T20:25:58.438Z,62.00
2017-09-17T20:28:26.680Z,61.40
2017-09-17T20:30:54.922Z,60.80
2017-09-17T20:33:23.954Z,60.00
2017-09-17T20:35:52.194Z,60.00
2017-09-17T20:38:22.286Z,59.60
2017-09-17T20:40:50.550Z,59.70
2017-09-17T20:43:18.792Z,59.50
2017-09-17T20:45:47.035Z,62.20
2017-09-17T20:48:15.562Z,61.20
2017-09-17T20:50:44.139Z,63.80
2017-09-17T20:53:12.365Z,62.10
2017-09-17T20:55:41.266Z,61.20
2017-09-17T20:58:10.270Z,61.00
2017-09-17T21:00:39.281Z,60.30
2017-09-17T21:03:07.538Z,60.30
2017-09-17T21:05:36.554Z,61.90
2017-09-17T21:08:04.790Z,61.70
2017-09-17T21:10:33.430Z,61.80
2017-09-17T21:13:01.670Z,62.70
2017-09-17T21:15:30.677Z,65.00
2017-09-17T21:17:58.943Z,64.90
2017-09-17T21:20:27.186Z,63.30
2017-09-17T21:22:55.446Z,62.10
2017-09-17T21:25:23.709Z,61.80
2017-09-17T21:27:51.947Z,61.50
2017-09-17T21:30:20.963Z,65.50
2017-09-17T21:32:49.770Z,65.50
2017-09-17T21:35:18.006Z,65.50
2017-09-17T21:37:46.246Z,70.70
2017-09-17T21:40:14.523Z,77.50
2017-09-17T21:42:42.762Z,68.30
2017-09-17T21:45:11.006Z,68.80
2017-09-17T21:47:40.043Z,66.20
2017-09-17T21:50:08.282Z,66.00
2017-09-17T21:52:37.285Z,66.20
2017-09-17T21:55:06.104Z,66.20
2017-09-17T21:57:34.363Z,64.90
2017-09-17T22:00:02.611Z,65.70
2017-09-17T22:02:30.870Z,68.70
2017-09-17T22:04:59.109Z,66.10
2017-09-17T22:07:27.405Z,70.10
2017-09-17T22:09:55.671Z,67.70
2017-09-17T22:12:23.910Z,68.10
2017-09-17T22:14:52.154Z,68.10
2017-09-17T22:17:20.902Z,70.10
2017-09-17T22:19:49.137Z,70.30
2017-09-17T22:22:17.384Z,67.30
2017-09-17T22:24:45.675Z,70.60
2017-09-17T22:27:13.924Z,68.20
2017-09-17T22:29:42.162Z,71.40
2017-09-17T22:32:10.418Z,71.40
2017-09-17T22:34:39.446Z,73.70
2017-09-17T22:37:07.690Z,72.70
2017-09-17T22:39:37.235Z,69.20
2017-09-17T22:42:05.478Z,69.30
2017-09-17T22:44:34.487Z,69.10
2017-09-17T22:47:02.762Z,69.10
2017-09-17T22:49:31.009Z,70.10
2017-09-17T22:52:00.014Z,70.60
2017-09-17T22:54:29.041Z,71.40
2017-09-17T22:56:57.285Z,71.40
2017-09-17T22:59:26.572Z,70.00
2017-09-17T23:01:54.934Z,70.00
2017-09-17T23:04:23.178Z,69.60
2017-09-17T23:06:51.473Z,68.00
2017-09-17T23:09:19.742Z,68.00
2017-09-17T23:11:47.982Z,68.10
2017-09-17T23:14:16.234Z,67.80
2017-09-17T23:16:44.502Z,70.10
2017-09-17T23:19:12.742Z,69.20
2017-09-17T23:21:40.990Z,68.70
2017-09-17T23:24:09.590Z,68.50
2017-09-17T23:26:37.833Z,67.80
2017-09-17T23:29:06.843Z,70.40
2017-09-17T23:31:35.102Z,70.20
2017-09-17T23:34:03.347Z,69.50
2017-09-17T23:36:31.667Z,72.60
2017-09-17T23:39:00.746Z,70.40
2017-09-17T23:41:29.762Z,71.60
2017-09-17T23:43:58.000Z,71.50
2017-09-17T23:46:26.542Z,69.80
2017-09-17T23:48:54.783Z,68.70
2017-09-17T23:51:23.782Z,70.00
2017-09-17T23:53:52.091Z,69.20
2017-09-17T23:56:20.326Z,69.00
2017-09-17T23:58:49.588Z,68.60
